Conejos, Valles Caldera, New Mexico Weather observations

Data are for 10 minute period ending at time listed.
 Day   Time   Solar   Ave.   Ave.  Ave.  Vector  Max.   Baro.   Total    
  of    of     Rad.   Air    Rel.  Wind   Wind   Wind  Press.  Precip.   
Year   Day            Temp.  Hum.  Speed  Dir.   Gust                    
2014   (MST)  Kw/m2    F      %     mph   deg.    mph    mb.     in.     
-------------------------------------------------------------------------
 262   18:30   0.00   60.9    64    0.0     0     0.0   99999.0    0.00 
 262   18:40   0.00   59.1    68    0.0   169     1.2   99999.0    0.00 
 262   18:50   0.00   57.8    70    0.6   158     1.2   99999.0    0.00 
 262   19:00   0.00   57.0    71    0.0     0     0.0   99999.0    0.00 
 262   19:10   0.00   56.6    71    0.0     0     0.0   99999.0    0.00 
 262   19:20   0.00   56.2    70    0.9   159     6.0   99999.0    0.00 
 262   19:30   0.00   55.5    71    0.9   185     1.8   99999.0    0.00 
 262   19:40   0.00   55.3    73    0.5   192     1.8   99999.0    0.00 
 262   19:50   0.00   55.8    73    0.2   172     1.8   99999.0    0.00 
 262   20:00   0.00   55.7    72    0.2   172     1.2   99999.0    0.00 
 262   20:10   0.00   55.6    75    0.2   174     1.8   99999.0    0.00 
 262   20:20   0.00   55.6    75    0.4   173     3.6   99999.0    0.00 
 262   20:30   0.00   55.5    76    0.1    91     1.5   99999.0    0.00 
 262   20:40   0.00   54.9    77    0.0     0     0.0   99999.0    0.00 
 262   20:50   0.00   54.6    79    0.0     0     0.0   99999.0    0.00 
 262   21:00   0.00   54.7    80    0.3   197     1.8   99999.0    0.00 
 262   21:10   0.00   54.6    80    0.3   201     1.8   99999.0    0.00 
 262   21:20   0.00   54.6    80    0.0     0     0.0   99999.0    0.00 
 262   21:30   0.00   54.3    81    0.0     0     0.0   99999.0    0.00 
 262   21:40   0.00   54.1    82    0.1   170     1.2   99999.0    0.00 
 262   21:50   0.00   53.7    85    0.0     0     0.0   99999.0    0.00 
 262   22:00   0.00   53.5    84    0.0     0     0.0   99999.0    0.00 
 262   22:10   0.00   53.1    86    0.0     0     0.0   99999.0    0.00 
 262   22:20   0.00   52.8    87    0.3   180     1.8   99999.0    0.00 
 262   22:30   0.00   52.6    88    0.1   106     1.2   99999.0    0.00 
 262   22:40   0.00   52.9    89    0.0     0     0.0   99999.0    0.00 
 262   22:50   0.00   53.0    88    0.1   216     1.2   99999.0    0.00 
 262   23:00   0.00   52.9    89    0.0     0     0.0   99999.0    0.00 
 262   23:10   0.00   52.9    90    0.0     0     0.0   99999.0    0.00 
 262   23:20   0.00   52.6    90    0.2   188     1.2   99999.0    0.00 
 262   23:30   0.00   51.8    90    0.2   174     1.2   99999.0    0.00 
 262   23:40   0.00   51.3    92    0.0   149     1.2   99999.0    0.00 
 262   23:50   0.00   51.2    93    0.0     0     0.0   99999.0    0.00 
 263    0:00   0.00   51.1    93    0.1   196     1.2   99999.0    0.00 
 263    0:10   0.00   50.9    94    0.4   188     1.8   99999.0    0.00 
 263    0:20   0.00   51.3    95    0.2   192     1.2   99999.0    0.00 
 263    0:30   0.00   52.1    95    0.4   314     3.0   99999.0    0.00 
 263    0:40   0.00   52.2    94    0.0     0     0.0   99999.0    0.00 
 263    0:50   0.00   52.6    95    0.0     0     0.0   99999.0    0.00 
 263    1:00   0.00   52.8    95    0.0   288     1.2   99999.0    0.00 
 263    1:10   0.00   53.3    94    0.4   295     1.8   99999.0    0.00 
 263    1:20   0.00   53.3    94    0.9   302     1.8   99999.0    0.00 
 263    1:30   0.00   53.8    92    0.5   298     1.8   99999.0    0.00 
 263    1:40   0.00   53.7    92    0.9   313     2.4   99999.0    0.00 
 263    1:50   0.00   53.6    93    0.6   319     1.8   99999.0    0.00 
 263    2:00   0.00   53.8    93    0.6   314     1.8   99999.0    0.00 
 263    2:10   0.00   53.8    94    1.1   312     2.4   99999.0    0.00 
 263    2:20   0.00   54.0    94    0.7   256     1.8   99999.0    0.00 
 263    2:30   100.00  99999.0   99999  99999.0   99999   99999.0   99999.0   99999.00 
 263    2:40   100.00  99999.0   99999  99999.0   99999   99999.0   99999.0   99999.00 
 263    2:50   100.00  99999.0   99999  99999.0   99999   99999.0   99999.0   99999.00 
 263    3:00   100.00  99999.0   99999  99999.0   99999   99999.0   99999.0   99999.00 
 263    3:10   100.00  99999.0   99999  99999.0   99999   99999.0   99999.0   99999.00 
 263    3:20   100.00  99999.0   99999  99999.0   99999   99999.0   99999.0   99999.00 
 263    3:30   0.00   53.9    96    1.0   295     1.8   99999.0    0.00 
 263    3:40   0.00   53.7    95    1.6   307     3.0   99999.0    0.00 
 263    3:50   0.00   53.1    96    1.6   313     2.4   99999.0    0.00 
 263    4:00   0.00   52.9    96    0.6   313     1.8   99999.0    0.00 
 263    4:10   0.00   51.7    95    0.0     0     0.0   99999.0    0.00 
 263    4:20   0.00   51.4    96    0.0   201     1.2   99999.0    0.00 
 263    4:30   0.00   52.0    97    0.6   224     1.8   99999.0    0.00 
 263    4:40   0.00   51.7    95    0.0     0     0.0   99999.0    0.00 
 263    4:50   0.00   51.2    95    0.0     0     0.0   99999.0    0.00 
 263    5:00   0.00   50.8    96    1.1   182     2.4   99999.0    0.00 
 263    5:10   0.00   51.0    96    0.9   176     1.8   99999.0    0.00 
 263    5:20   0.00   51.0    95    0.2   210     1.2   99999.0    0.00 
 263    5:30   0.00   52.1    92    1.1   193     1.8   99999.0    0.00 
 263    5:40   0.00   51.2    93    0.1   205     1.2   99999.0    0.00 
 263    5:50   0.00   51.0    91    0.0     0     0.0   99999.0    0.00 
 263    6:00   0.00   51.0    92    0.7   222     1.8   99999.0    0.00 
 263    6:10   0.01   51.7    88    0.5   187     2.4   99999.0    0.00 
 263    6:20   0.01   50.6    90    0.2   195     1.8   99999.0    0.00 
 263    6:30   0.01   50.6    92    0.6   181     1.8   99999.0    0.00 
 263    6:40   0.03   51.0    89    0.0     0     0.0   99999.0    0.00 
 263    6:50   0.05   51.5    90    0.4   128     1.2   99999.0    0.00 
 263    7:00   0.05   51.4    89    1.1   145     3.0   99999.0    0.00 
 263    7:10   0.15   52.7    90    1.8   149     4.8   99999.0    0.00 
 263    7:20   0.16   56.4    81    0.5   114     1.8   99999.0    0.00 
 263    7:30   0.07   56.9    79    1.0   172     4.2   99999.0    0.00 
 263    7:40   0.07   58.2    77    2.1   160     4.2   99999.0    0.00 
 263    7:50   0.07   58.2    79    1.5   146     4.8   99999.0    0.00 
 263    8:00   0.22   59.3    73    1.0    57     2.4   99999.0    0.00 
 263    8:10   0.28   60.6    72    1.0   110     2.4   99999.0    0.00 
 263    8:20   0.27   61.2    72    1.5   347     3.0   99999.0    0.00 
 263    8:30   0.37   62.2    68    1.7   149     3.9   99999.0    0.00 
 263    8:40   0.48   63.4    67    1.8     2     3.0   99999.0    0.00 
 263    8:50   0.59   64.3    63    2.2   160     5.4   99999.0    0.00 
 263    9:00   0.23   64.8    63    2.9   181     5.4   99999.0    0.00 
 263    9:10   0.17   66.1    60    2.2   210     4.8   99999.0    0.00 
 263    9:20   0.16   67.9    56    3.0   147     6.6   99999.0    0.00 
 263    9:30   0.16   68.1    55    3.0   145     6.6   99999.0    0.00 
 263    9:40   0.07   68.1    55    3.0   151     6.6   99999.0    0.00 
 263    9:50   0.07   68.1    56    3.0   144     7.5   99999.0    0.00 
 263   10:00   0.55   69.0    52    2.4   118     4.8   99999.0    0.00 
 263   10:10   0.79   68.9    54    2.5   166     4.2   99999.0    0.00 
 263   10:20   0.81   69.6    47    2.1    70     5.4   99999.0    0.00 
 263   10:30   0.84   72.3    32    3.7   183     7.8   99999.0    0.00 
 263   10:40   0.85   72.9    34    3.2    45     7.5   99999.0    0.00 
 263   10:50   0.87   73.8    34    3.0    67     6.6   99999.0    0.00 
 263   11:00   0.87   74.8    42    3.9   152     7.8   99999.0    0.00 
 263   11:10   0.84   74.1    35    4.2   159    10.2   99999.0    0.00 
 263   11:20   0.76   75.4    24    2.7    78     7.8   99999.0    0.00 
 263   11:30   0.92   76.4    30    3.0   199     6.6   99999.0    0.00 
 263   11:40   0.73   74.9    41    4.4   151    11.3   99999.0    0.00 
 263   11:50   0.75   74.2    40    4.3   155    10.8   99999.0    0.00 
 263   12:00   0.93   74.9    40    4.2   138     8.4   99999.0    0.00 
 263   12:10   0.93   75.9    36    2.8    79     5.4   99999.0    0.00 
 263   12:20   0.94   75.7    40    3.1     1     7.8   99999.0    0.00 
 263   12:30   0.83   74.7    39    3.3   136     7.8   99999.0    0.00 
 263   12:40   0.68   74.8    37    4.0   248    11.9   99999.0    0.00 
 263   12:50   0.89   76.8    25    4.2   148    10.8   99999.0    0.00 
 263   13:00   0.85   77.2    28    5.5   158    12.5   99999.0    0.00 
 263   13:10   0.88   76.6    26    5.0   154    10.8   99999.0    0.00 
 263   13:20   0.83   76.7    25    3.8   120     7.2   99999.0    0.00 
 263   13:30   0.49   76.1    25    6.3   156    15.5   99999.0    0.00 
 263   13:40   0.08   76.9    23    5.3   136    15.5   99999.0    0.00 
 263   13:50   0.06   77.3    23    4.5   131    12.5   99999.0    0.00 
 263   14:00   0.07   76.9    23    5.7   153    13.7   99999.0    0.00 
 263   14:10   0.20   77.6    23    4.0   130    10.2   99999.0    0.00 
 263   14:20   0.50   77.6    23    5.3   121    15.5   99999.0    0.00 
 263   14:30   0.10   76.8    25    5.2   139     9.6   99999.0    0.00 
 263   14:40   0.06   76.6    26    4.8   117    10.8   99999.0    0.00 
 263   14:50   0.07   76.2    25    5.8   143    13.7   99999.0    0.00 
 263   15:00   0.09   76.3    25    5.7   140    15.5   99999.0    0.00 
 263   15:10   0.06   76.2    24    7.2   156    14.9   99999.0    0.00 
 263   15:20   0.05   75.8    24    5.3   143    12.5   99999.0    0.00 
 263   15:30   0.05   76.0    24    5.8   139    13.1   99999.0    0.00 
 263   15:40   0.10   75.8    23    4.1   150     9.6   99999.0    0.00 
 263   15:50   0.17   75.8    24    4.2   133     9.6   99999.0    0.00 
 263   16:00   0.04   74.7    23    4.3   147    10.8   99999.0    0.00 
 263   16:10   0.04   73.4    23    4.8   147    11.3   99999.0    0.00 
 263   16:20   0.07   73.5    23    4.5   145    12.5   99999.0    0.00 
 263   16:30   0.10   74.7    23    4.4   136     7.8   99999.0    0.00 
 263   16:40   0.12   74.7    24    5.2   154    12.5   99999.0    0.00 
 263   16:50   0.10   73.9    26    6.1   153    14.0   99999.0    0.00 
 263   17:00   0.05   72.2    29    4.8   148    11.3   99999.0    0.00 
 263   17:10   0.04   71.7    30    4.6   139    14.3   99999.0    0.00 
 263   17:20   0.04   71.0    32    5.7   154    13.4   99999.0    0.00 
 263   17:30   0.02   70.2    34    5.1   157    11.3   99999.0    0.00 
 263   17:40   0.01   69.8    36    4.4   139    10.8   99999.0    0.00 
 263   17:50   0.01   69.2    39    5.4   148    16.1   99999.0    0.00 
 263   18:00   0.01   68.6    40    4.7   140    10.8   99999.0    0.00 
 263   18:10   0.00   68.0    42    5.5   149    11.9   99999.0    0.00 
 263   18:20   0.00   67.6    44    5.4   138    11.3   99999.0    0.00 

Return to Conejos, Valles Caldera graphs page.


Western Regional Climate Center,wrcc@dri.edu